Terminal Aerodrome Forecast
Issued by NWS Mt. Holly, NJ

Home | Current Version | Previous Version | Text Only | Print | Product List | Glossary On
Versions: 1 2 3 4 5 6 7 8 9 10 11 12 13 14 15 16 17 18 19 20 21
470
FTUS41 KPHI 221130
TAFTTN
TAF
KTTN 221130Z 2212/2312 31008KT P6SM SKC
     FM221400 32010G18KT P6SM SKC
     FM221800 30014G24KT P6SM SCT070
      TEMPO 2218/2222 BKN070
     FM222300 30011KT P6SM SKC
     FM230200 35009G18KT P6SM SKC
     FM230700 33005KT P6SM SKC=

USA.gov is the U.S. government's official web portal to all federal, state and local government web resources and services.